KIEN

Pine Ridge Airport

Pine Ridge, South Dakota, USA
METAR KIEN 190252Z AUTO 25007KT 10SM CLR 03/M01 A2979 RMK AO2 SLP105 T00331011 56011
Observed Flight Rules
Jan-19 @ 02:52 UTC (50 minutes ago) Visual Flight Rules
Wind Visibility Clouds
250° at 7 knots 10 miles
  • Clear skies
Temperatures Readings
Current 3°C / 37°F
Dewpoint -1°C / 30°F
Humidity 75%
Altimeter 29.79" Hg
Pressure 1010.5 hPa
Elevation 998
METAR KIEN 190252Z AUTO 25007KT 10SM CLR 03/M01 A2979 RMK AO2 SLP105 T00331011 56011
Observed Flight Rules
Jan-19 @ 02:52 UTC
(50 minutes ago)
VFR
Wind Visibility
250° at 7 knots 10 miles
Clouds
  • Clear skies
Temperature Dewpoint
3°C / 37°F -1°C / 30°F
Humidity Altimeter Pressure
75% 29.79" Hg 1010.5 hPa